createdAt,value
2019-03-06T05:58:38.583Z,66.16
2019-03-06T05:59:45.594Z,68.61
2019-03-06T06:00:53.633Z,69.27
2019-03-06T06:02:01.692Z,68.42
2019-03-06T06:03:09.734Z,68.90
2019-03-06T06:04:17.825Z,69.56
2019-03-06T06:05:25.854Z,69.65
2019-03-06T06:06:33.912Z,68.71
2019-03-06T06:07:41.973Z,70.59
2019-03-06T06:08:50.065Z,70.40
2019-03-06T06:09:58.096Z,71.07
2019-03-06T06:11:06.148Z,71.64
2019-03-06T06:12:14.191Z,71.64
2019-03-06T06:13:22.264Z,71.26
2019-03-06T06:14:30.302Z,70.31
2019-03-06T06:15:38.362Z,70.78
2019-03-06T06:16:46.427Z,70.69
2019-03-06T06:17:54.473Z,70.50
2019-03-06T06:19:02.527Z,69.84
2019-03-06T06:20:10.631Z,69.84
2019-03-06T06:21:18.605Z,69.93
2019-03-06T06:22:26.714Z,69.65
2019-03-06T06:23:34.737Z,68.42
2019-03-06T06:24:43.187Z,67.47
2019-03-06T06:25:50.855Z,68.04
2019-03-06T06:26:58.884Z,69.37
2019-03-06T06:28:06.975Z,67.85
2019-03-06T06:29:15.018Z,67.38
2019-03-06T06:30:23.073Z,67.76
2019-03-06T06:31:31.140Z,67.10
2019-03-06T06:32:39.170Z,67.10
2019-03-06T06:33:47.244Z,66.16
2019-03-06T06:34:55.333Z,66.56
2019-03-06T06:36:03.395Z,67.29
2019-03-06T06:37:11.416Z,66.63
2019-03-06T06:38:19.459Z,64.48
2019-03-06T06:39:27.527Z,64.01
2019-03-06T06:40:35.739Z,62.97
2019-03-06T06:41:43.634Z,64.77
2019-03-06T06:42:51.695Z,73.37
2019-03-06T06:43:59.742Z,76.31
2019-03-06T06:45:07.799Z,80.04
2019-03-06T06:46:15.854Z,85.80
2019-03-06T06:47:23.910Z,87.60
2019-03-06T06:48:31.969Z,93.80
2019-03-06T06:49:40.018Z,94.65
2019-03-06T06:50:48.077Z,96.92
2019-03-06T06:51:56.135Z,94.84
2019-03-06T06:53:04.192Z,95.31
2019-03-06T06:54:12.254Z,98.25
2019-03-06T06:55:20.316Z,99.99
2019-03-06T06:56:28.369Z,99.99
2019-03-06T06:57:36.426Z,99.99
2019-03-06T06:58:44.489Z,99.99
2019-03-06T06:59:52.542Z,99.99
2019-03-06T07:01:00.610Z,99.43
2019-03-06T07:02:08.642Z,98.77
2019-03-06T07:03:16.715Z,99.99
2019-03-06T07:04:24.791Z,99.99
2019-03-06T07:05:32.833Z,99.99
2019-03-06T07:06:40.891Z,99.99
2019-03-06T07:07:48.921Z,99.99
2019-03-06T07:08:56.998Z,99.99
2019-03-06T07:10:05.060Z,99.99
2019-03-06T07:11:13.134Z,99.99
2019-03-06T07:12:21.190Z,99.99
2019-03-06T07:13:29.223Z,99.99
2019-03-06T07:14:37.297Z,99.99
2019-03-06T07:15:45.367Z,99.99
2019-03-06T07:16:53.419Z,99.99
2019-03-06T07:18:01.491Z,99.99
2019-03-06T07:19:09.528Z,99.99
2019-03-06T07:20:17.613Z,99.99
2019-03-06T07:21:25.647Z,99.99
2019-03-06T07:22:33.716Z,99.99
2019-03-06T07:23:41.772Z,99.99
2019-03-06T07:24:49.835Z,99.99
2019-03-06T07:25:57.874Z,99.99
2019-03-06T07:27:05.949Z,99.99
2019-03-06T07:28:14.002Z,99.99
2019-03-06T07:29:22.063Z,99.99
2019-03-06T07:30:30.123Z,99.99
2019-03-06T07:31:38.183Z,99.99
2019-03-06T07:32:46.240Z,99.99
2019-03-06T07:33:54.302Z,99.99
2019-03-06T07:35:02.353Z,99.99
2019-03-06T07:36:10.423Z,99.99
2019-03-06T07:37:18.455Z,99.99
2019-03-06T07:38:26.536Z,99.99
2019-03-06T07:39:34.605Z,99.99
2019-03-06T07:40:42.666Z,99.99
2019-03-06T07:41:50.719Z,99.99
2019-03-06T07:42:58.789Z,99.99
2019-03-06T07:44:06.835Z,99.99
2019-03-06T07:45:14.911Z,99.99
2019-03-06T07:46:22.933Z,99.99
2019-03-06T07:47:31.037Z,99.99
2019-03-06T07:48:39.074Z,99.99
2019-03-06T07:49:47.134Z,99.99
2019-03-06T07:50:55.205Z,99.99
2019-03-06T07:52:03.262Z,99.99
2019-03-06T07:53:11.298Z,99.99
2019-03-06T07:54:19.357Z,99.99
2019-03-06T07:55:27.445Z,99.99
2019-03-06T07:56:35.515Z,99.99
2019-03-06T07:57:43.563Z,99.99
2019-03-06T07:58:51.626Z,99.99
2019-03-06T07:59:59.680Z,99.99
2019-03-06T08:01:16.602Z,99.99
2019-03-06T08:02:15.816Z,99.99
2019-03-06T08:03:23.872Z,99.99
2019-03-06T08:04:31.932Z,99.99
2019-03-06T08:05:39.999Z,99.99
2019-03-06T08:06:48.061Z,99.99
2019-03-06T08:07:56.090Z,99.99
2019-03-06T08:09:04.162Z,99.99
2019-03-06T08:10:12.234Z,99.99
2019-03-06T08:11:20.295Z,99.99
2019-03-06T08:12:28.387Z,99.99
2019-03-06T08:13:36.412Z,99.99
2019-03-06T08:14:44.475Z,99.99
2019-03-06T08:15:52.548Z,99.99
2019-03-06T08:17:00.608Z,99.99
2019-03-06T08:18:08.643Z,99.99
2019-03-06T08:19:16.733Z,99.99
2019-03-06T08:20:24.788Z,99.99
2019-03-06T08:21:32.839Z,99.99
2019-03-06T08:22:40.903Z,90.14
2019-03-06T08:23:48.959Z,86.43
2019-03-06T08:24:57.038Z,94.51
2019-03-06T08:26:05.098Z,88.90
2019-03-06T08:27:13.158Z,82.24
2019-03-06T08:28:21.215Z,81.10
2019-03-06T08:29:29.264Z,83.39
2019-03-06T08:30:37.343Z,78.82
2019-03-06T08:31:45.422Z,75.11
2019-03-06T08:32:53.464Z,78.34
2019-03-06T08:34:01.534Z,83.48
2019-03-06T08:35:09.592Z,93.55
2019-03-06T08:36:17.648Z,91.37
2019-03-06T08:37:25.716Z,79.77
2019-03-06T08:38:33.770Z,98.50
2019-03-06T08:39:41.844Z,87.19
2019-03-06T08:40:49.910Z,74.92
2019-03-06T08:41:57.959Z,72.74
2019-03-06T08:43:06.020Z,76.54
2019-03-06T08:44:14.092Z,78.06
2019-03-06T08:45:22.142Z,85.66
2019-03-06T08:46:30.209Z,89.37
2019-03-06T08:47:38.255Z,92.32
2019-03-06T08:48:46.338Z,75.78
2019-03-06T08:49:55.240Z,78.34
2019-03-06T08:51:02.453Z,78.06
2019-03-06T08:52:10.523Z,75.78
2019-03-06T08:53:18.543Z,76.82
2019-03-06T08:54:26.638Z,72.64
2019-03-06T08:55:34.699Z,70.54
2019-03-06T08:56:42.759Z,70.36
2019-03-06T08:57:50.827Z,70.83
2019-03-06T08:58:58.857Z,73.69
2019-03-06T09:00:06.946Z,73.49
2019-03-06T09:01:14.999Z,78.25
2019-03-06T09:02:23.075Z,81.01
2019-03-06T09:03:31.132Z,76.54
2019-03-06T09:04:39.164Z,76.16
2019-03-06T09:05:47.256Z,71.15
2019-03-06T09:06:55.328Z,76.01
2019-03-06T09:08:03.396Z,72.20
2019-03-06T09:09:11.437Z,71.34
2019-03-06T09:10:19.506Z,73.72
2019-03-06T09:11:27.555Z,73.72
2019-03-06T09:12:35.644Z,69.44
2019-03-06T09:13:43.691Z,66.91
2019-03-06T09:14:51.756Z,66.81
2019-03-06T09:15:59.816Z,75.38
2019-03-06T09:17:07.912Z,71.76
2019-03-06T09:18:15.941Z,72.52
2019-03-06T09:19:24.014Z,64.72
2019-03-06T09:20:36.108Z,64.34
2019-03-06T09:21:40.378Z,67.00
2019-03-06T09:22:48.420Z,69.00
2019-03-06T09:23:56.505Z,63.80
2019-03-06T09:25:04.558Z,63.51
2019-03-06T09:26:12.584Z,64.08
2019-03-06T09:27:20.647Z,64.47
2019-03-06T09:28:28.708Z,68.08
2019-03-06T09:29:36.795Z,67.70
2019-03-06T09:30:44.869Z,65.99
2019-03-06T09:31:52.904Z,62.49
2019-03-06T09:33:00.983Z,66.59
2019-03-06T09:34:08.994Z,61.16
2019-03-06T09:35:17.086Z,60.88
2019-03-06T09:36:25.157Z,59.64
2019-03-06T09:37:33.228Z,62.12
2019-03-06T09:38:41.303Z,65.07
2019-03-06T09:39:49.332Z,67.45
2019-03-06T09:40:57.410Z,69.54
2019-03-06T09:42:05.478Z,65.16
2019-03-06T09:43:13.552Z,65.29
2019-03-06T09:44:21.607Z,60.72
2019-03-06T09:45:29.675Z,59.67
2019-03-06T09:46:37.740Z,61.96
2019-03-06T09:47:45.802Z,59.38
2019-03-06T09:48:53.874Z,58.72
2019-03-06T09:50:01.961Z,63.76
2019-03-06T09:51:09.984Z,62.91
2019-03-06T09:52:18.049Z,63.20
2019-03-06T09:53:26.234Z,61.57
2019-03-06T09:54:34.194Z,60.81
2019-03-06T09:55:42.273Z,61.76
2019-03-06T09:56:51.718Z,61.76
2019-03-06T09:57:59.794Z,59.48
2019-03-06T09:59:09.694Z,58.33
2019-03-06T10:00:34.023Z,59.57
2019-03-06T10:01:41.998Z,59.19
2019-03-06T10:02:50.052Z,61.96
2019-03-06T10:06:30.824Z,57.38
2019-03-06T10:07:38.850Z,60.24
2019-03-06T10:08:46.930Z,62.24
2019-03-06T10:09:58.999Z,65.39
2019-03-06T10:11:03.055Z,64.24
2019-03-06T10:12:11.124Z,65.77
2019-03-06T10:13:19.189Z,64.34
2019-03-06T10:14:27.247Z,63.23
2019-03-06T10:15:35.320Z,57.50
2019-03-06T10:16:48.726Z,56.65
2019-03-06T10:17:51.454Z,56.07
2019-03-06T10:18:59.522Z,54.71
2019-03-06T10:20:07.582Z,55.95
2019-03-06T10:21:15.642Z,57.70
2019-03-06T10:22:23.731Z,59.70
2019-03-06T10:23:31.770Z,58.55
2019-03-06T10:24:39.834Z,59.99
2019-03-06T10:25:47.932Z,59.41
2019-03-06T10:26:56.184Z,58.46
2019-03-06T10:28:06.419Z,57.06
2019-03-06T10:29:12.097Z,56.29
2019-03-06T10:30:22.821Z,61.99
2019-03-06T10:31:30.856Z,61.44
2019-03-06T10:32:38.911Z,57.06
2019-03-06T10:33:46.981Z,54.57
2019-03-06T10:34:55.193Z,56.01
2019-03-06T10:36:03.128Z,54.10
2019-03-06T10:37:11.179Z,54.67
2019-03-06T10:38:19.227Z,57.43
2019-03-06T10:39:27.319Z,57.24
2019-03-06T10:40:35.401Z,59.63
2019-03-06T10:41:43.452Z,58.87
2019-03-06T10:42:51.511Z,55.91
2019-03-06T10:43:59.574Z,57.06
2019-03-06T10:45:07.635Z,59.44
2019-03-06T10:46:15.702Z,60.97
2019-03-06T10:47:23.771Z,58.39
2019-03-06T10:48:31.824Z,57.72
2019-03-06T10:49:39.909Z,58.48
2019-03-06T10:50:47.976Z,58.48
2019-03-06T10:51:56.039Z,57.15
2019-03-06T10:53:04.097Z,55.62
2019-03-06T10:54:12.175Z,54.57
2019-03-06T10:55:20.231Z,55.34
2019-03-06T10:56:28.290Z,56.01
2019-03-06T10:57:36.358Z,57.15
2019-03-06T10:58:44.438Z,58.01
2019-03-06T10:59:52.501Z,55.53
2019-03-06T11:01:00.572Z,55.05
2019-03-06T11:02:08.611Z,57.92
2019-03-06T11:03:16.691Z,58.97
2019-03-06T11:04:24.772Z,56.48
2019-03-06T11:05:32.835Z,58.97
2019-03-06T11:06:40.892Z,60.30
2019-03-06T11:07:48.947Z,58.77
2019-03-06T11:08:57.025Z,60.21
2019-03-06T11:10:05.101Z,60.71
2019-03-06T11:11:13.161Z,57.65
2019-03-06T11:12:21.238Z,58.97
2019-03-06T11:13:29.279Z,60.42
2019-03-06T11:14:37.360Z,58.99
2019-03-06T11:15:45.422Z,62.71
2019-03-06T11:16:53.495Z,61.00
2019-03-06T11:18:01.545Z,60.71
2019-03-06T11:19:09.615Z,61.86
2019-03-06T11:20:17.689Z,61.00
2019-03-06T11:21:25.748Z,58.04
2019-03-06T11:22:33.826Z,59.19
2019-03-06T11:23:41.887Z,61.00
2019-03-06T11:24:49.959Z,58.33
2019-03-06T11:25:58.010Z,60.33
2019-03-06T11:27:06.081Z,60.61
2019-03-06T11:28:14.152Z,59.56
2019-03-06T11:29:22.221Z,59.98
2019-03-06T11:30:30.293Z,61.03
2019-03-06T11:31:38.340Z,60.27
2019-03-06T11:32:54.189Z,59.78
2019-03-06T11:33:54.481Z,60.46
2019-03-06T11:35:02.545Z,60.17
2019-03-06T11:36:10.612Z,59.22
2019-03-06T11:37:18.670Z,59.41
2019-03-06T11:38:26.734Z,59.78
2019-03-06T11:39:34.806Z,59.41
2019-03-06T11:40:42.863Z,57.40
2019-03-06T11:41:50.930Z,55.40
2019-03-06T11:42:58.977Z,57.50
2019-03-06T11:44:07.057Z,59.41
2019-03-06T11:45:15.145Z,63.03
2019-03-06T11:46:23.203Z,59.34
2019-03-06T11:47:31.261Z,56.82
2019-03-06T11:48:39.319Z,59.05
2019-03-06T11:49:47.440Z,60.30
2019-03-06T11:50:55.484Z,58.10
2019-03-06T11:52:03.560Z,59.34
2019-03-06T11:53:11.599Z,60.10
2019-03-06T11:54:19.647Z,60.77
2019-03-06T11:55:27.731Z,61.25
2019-03-06T11:56:35.796Z,59.84
2019-03-06T11:57:43.870Z,61.09
2019-03-06T11:58:51.931Z,62.90
2019-03-06T11:59:59.992Z,61.95
2019-03-06T12:01:08.046Z,61.28
2019-03-06T12:02:16.129Z,57.84
2019-03-06T12:03:24.187Z,56.79
2019-03-06T12:04:32.257Z,59.08
2019-03-06T12:05:40.312Z,57.75
2019-03-06T12:06:48.378Z,57.93
2019-03-06T12:07:56.450Z,56.12
2019-03-06T12:09:04.516Z,56.88
2019-03-06T12:10:12.581Z,57.17
2019-03-06T12:11:20.647Z,53.53
2019-03-06T12:12:28.686Z,53.63
2019-03-06T12:13:36.771Z,54.49
2019-03-06T12:14:44.840Z,56.69
2019-03-06T12:15:52.909Z,58.41
2019-03-06T12:17:00.982Z,56.50
2019-03-06T12:18:09.011Z,56.88
2019-03-06T12:19:17.107Z,57.07
2019-03-06T12:20:25.175Z,56.31
2019-03-06T12:21:33.256Z,58.51
2019-03-06T12:22:41.304Z,57.36
2019-03-06T12:23:49.349Z,59.37
2019-03-06T12:24:57.416Z,59.20
2019-03-06T12:26:05.506Z,58.63
2019-03-06T12:27:13.562Z,60.26
2019-03-06T12:28:21.636Z,57.55
2019-03-06T12:29:29.703Z,57.07
2019-03-06T12:30:37.756Z,57.20
2019-03-06T12:31:45.833Z,58.44
2019-03-06T12:32:53.895Z,54.80
2019-03-06T12:34:01.960Z,52.13
2019-03-06T12:35:10.040Z,56.24
2019-03-06T12:36:18.106Z,56.15
2019-03-06T12:37:26.146Z,54.52
2019-03-06T12:38:34.223Z,53.28
2019-03-06T12:39:42.319Z,54.80
2019-03-06T12:40:50.397Z,55.07
2019-03-06T12:41:58.924Z,53.56
2019-03-06T12:43:06.520Z,53.16
2019-03-06T12:44:14.546Z,53.44
2019-03-06T12:45:22.629Z,54.59
2019-03-06T12:46:30.689Z,54.88
2019-03-06T12:47:38.735Z,53.92
2019-03-06T12:48:46.820Z,52.67
2019-03-06T12:49:54.897Z,53.63
2019-03-06T12:51:04.366Z,53.63
2019-03-06T12:52:11.009Z,53.82
2019-03-06T12:53:19.071Z,53.25
2019-03-06T12:54:27.154Z,53.16
2019-03-06T12:55:35.213Z,53.34
2019-03-06T12:56:43.291Z,54.02
2019-03-06T12:57:59.057Z,51.62
2019-03-06T12:58:59.416Z,53.06
2019-03-06T13:00:07.464Z,52.67
2019-03-06T13:01:15.541Z,53.34
2019-03-06T13:02:23.610Z,53.28
2019-03-06T13:03:31.673Z,52.70
2019-03-06T13:04:41.226Z,52.89
2019-03-06T13:05:47.813Z,53.56
2019-03-06T13:06:55.882Z,52.03
2019-03-06T13:08:03.944Z,53.28
2019-03-06T13:09:12.013Z,52.22
2019-03-06T13:10:20.092Z,52.99
2019-03-06T13:11:28.145Z,50.60
2019-03-06T13:12:38.155Z,50.50
2019-03-06T13:13:44.297Z,52.13
2019-03-06T13:14:52.371Z,52.61
2019-03-06T13:16:00.441Z,52.63
2019-03-06T13:17:08.506Z,53.20
2019-03-06T13:18:16.548Z,52.15
2019-03-06T13:19:24.656Z,50.43
2019-03-06T13:20:32.673Z,51.39
2019-03-06T13:21:40.755Z,51.97
2019-03-06T13:22:48.801Z,52.06
2019-03-06T13:23:58.512Z,49.48
2019-03-06T13:25:05.149Z,50.05
2019-03-06T13:26:15.634Z,50.81
2019-03-06T13:27:23.714Z,51.10
2019-03-06T13:28:31.761Z,52.63
2019-03-06T13:29:39.843Z,50.26
2019-03-06T13:30:52.339Z,49.40
2019-03-06T13:33:13.779Z,50.26
2019-03-06T13:34:20.788Z,49.79
2019-03-06T13:35:28.813Z,50.84
2019-03-06T13:36:36.906Z,52.66
2019-03-06T13:37:44.966Z,51.03
2019-03-06T13:38:56.207Z,51.03
2019-03-06T13:40:03.215Z,50.17
2019-03-06T13:41:09.202Z,49.31
2019-03-06T13:42:17.265Z,50.26
2019-03-06T13:43:25.337Z,48.44
2019-03-06T13:44:33.413Z,48.44
2019-03-06T13:45:42.841Z,50.74
2019-03-06T13:46:50.913Z,50.56
2019-03-06T13:47:58.951Z,49.60
2019-03-06T13:49:07.064Z,48.83
2019-03-06T13:50:15.161Z,49.21
2019-03-06T13:52:40.344Z,51.89
2019-03-06T13:53:48.411Z,48.73
2019-03-06T13:54:56.467Z,49.21
2019-03-06T13:56:04.543Z,48.64
2019-03-06T13:57:12.613Z,48.83
2019-03-06T13:58:20.675Z,47.49
2019-03-06T13:59:28.722Z,47.39
2019-03-06T14:00:36.813Z,49.11
2019-03-06T14:01:44.870Z,49.50
2019-03-06T14:02:52.933Z,47.30
2019-03-06T14:04:01.031Z,47.11
2019-03-06T14:05:09.051Z,46.72
2019-03-06T14:06:17.148Z,47.20
2019-03-06T14:07:25.216Z,47.39
2019-03-06T14:08:33.283Z,50.26
2019-03-06T14:09:41.370Z,50.07
2019-03-06T14:10:49.421Z,47.01
2019-03-06T14:11:57.489Z,48.73
2019-03-06T14:13:05.557Z,49.31
2019-03-06T14:14:13.626Z,49.31
2019-03-06T14:15:21.690Z,48.64
2019-03-06T14:16:29.740Z,47.49
2019-03-06T14:17:37.819Z,47.56
2019-03-06T14:18:45.896Z,48.80
2019-03-06T14:19:53.962Z,47.75
2019-03-06T14:21:02.031Z,47.39
2019-03-06T14:22:10.111Z,48.90
2019-03-06T14:23:18.173Z,48.52
2019-03-06T14:24:26.242Z,48.23
2019-03-06T14:25:34.292Z,50.24
2019-03-06T14:26:42.378Z,49.57
2019-03-06T14:27:50.431Z,48.90
2019-03-06T14:28:58.509Z,48.71
2019-03-06T14:30:06.572Z,46.41
2019-03-06T14:31:14.668Z,48.13
2019-03-06T14:32:22.738Z,49.00
2019-03-06T14:33:30.792Z,48.61
2019-03-06T14:34:38.864Z,48.42
2019-03-06T14:35:46.916Z,50.05
2019-03-06T14:36:54.985Z,48.04
2019-03-06T14:38:03.044Z,47.56
2019-03-06T14:39:11.106Z,49.19
2019-03-06T14:40:19.169Z,49.35
2019-03-06T14:41:27.249Z,48.97
2019-03-06T14:42:35.304Z,49.55
2019-03-06T14:43:43.372Z,50.12
2019-03-06T14:44:51.434Z,48.88
2019-03-06T14:45:59.510Z,47.34
2019-03-06T14:47:07.569Z,46.48
2019-03-06T14:48:15.640Z,46.77
2019-03-06T14:49:23.713Z,49.16
2019-03-06T14:50:31.781Z,48.59
2019-03-06T14:51:39.830Z,49.07
2019-03-06T14:52:47.894Z,50.31
2019-03-06T14:53:55.972Z,50.19
2019-03-06T14:55:04.436Z,51.43
2019-03-06T14:56:12.091Z,52.87
2019-03-06T14:57:20.173Z,52.58
2019-03-06T14:58:28.225Z,52.87
2019-03-06T14:59:36.305Z,53.73
2019-03-06T15:01:58.283Z,54.11
2019-03-06T15:03:06.352Z,54.21
2019-03-06T15:04:14.413Z,54.78
2019-03-06T15:05:22.497Z,54.02
2019-03-06T15:06:30.540Z,53.06
2019-03-06T15:07:38.592Z,53.63
2019-03-06T15:08:46.682Z,54.59
2019-03-06T15:09:54.764Z,54.68
2019-03-06T15:11:02.813Z,56.38
2019-03-06T15:12:10.886Z,56.18
2019-03-06T15:13:18.927Z,55.74
2019-03-06T15:14:35.690Z,55.13
2019-03-06T15:15:35.079Z,55.99
2019-03-06T15:16:43.149Z,56.09
2019-03-06T15:17:51.229Z,54.75
2019-03-06T15:18:59.313Z,54.94
2019-03-06T15:20:07.333Z,56.28
2019-03-06T15:21:15.415Z,56.28
2019-03-06T15:22:23.474Z,53.51
2019-03-06T15:23:31.559Z,53.70
2019-03-06T15:24:41.517Z,54.56
2019-03-06T15:25:47.667Z,55.13
2019-03-06T15:26:55.738Z,55.42
2019-03-06T15:29:16.121Z,55.32
2019-03-06T15:30:24.177Z,54.85
2019-03-06T15:31:32.228Z,55.96
2019-03-06T15:32:42.094Z,56.54
2019-03-06T15:33:48.366Z,57.14
2019-03-06T15:34:56.432Z,56.09
2019-03-06T15:36:04.515Z,54.82
2019-03-06T15:37:12.570Z,56.06
2019-03-06T15:38:20.643Z,55.77
2019-03-06T15:39:28.673Z,57.21
2019-03-06T15:40:36.773Z,56.73
2019-03-06T15:41:44.829Z,56.73
2019-03-06T15:42:52.892Z,57.59
2019-03-06T15:44:00.952Z,54.63
2019-03-06T15:45:08.996Z,54.72
2019-03-06T15:46:17.103Z,57.50
2019-03-06T15:47:33.356Z,58.36
2019-03-06T15:48:33.229Z,58.16
2019-03-06T15:49:41.297Z,58.93
2019-03-06T15:50:49.320Z,59.59
2019-03-06T15:51:57.420Z,60.46
2019-03-06T15:53:05.482Z,61.51
2019-03-06T15:54:13.532Z,61.69
2019-03-06T15:55:21.615Z,61.22
2019-03-06T15:56:29.669Z,59.66
2019-03-06T15:57:37.737Z,59.95
2019-03-06T15:58:45.804Z,59.66
2019-03-06T15:59:53.868Z,59.76
2019-03-06T16:01:01.936Z,60.04
2019-03-06T16:02:10.040Z,59.95
2019-03-06T16:03:18.089Z,60.14
2019-03-06T16:04:26.159Z,60.61
2019-03-06T16:05:34.250Z,62.52
2019-03-06T16:06:42.297Z,61.47
2019-03-06T16:07:50.357Z,60.81
2019-03-06T16:08:58.404Z,61.29
2019-03-06T16:10:06.460Z,61.86
2019-03-06T16:11:14.520Z,61.19
2019-03-06T16:12:22.589Z,61.86
2019-03-06T16:13:30.645Z,62.15
2019-03-06T16:14:38.712Z,61.47
2019-03-06T16:15:46.776Z,61.10
2019-03-06T16:16:54.826Z,61.44
2019-03-06T16:18:02.898Z,61.83
2019-03-06T16:19:10.974Z,62.40
2019-03-06T16:20:19.028Z,60.97
2019-03-06T16:21:27.099Z,59.06
2019-03-06T16:22:35.173Z,60.02
2019-03-06T16:23:43.249Z,61.44
2019-03-06T16:24:51.315Z,61.73
2019-03-06T16:25:59.366Z,62.97
2019-03-06T16:27:07.457Z,63.07
2019-03-06T16:28:15.527Z,62.78
2019-03-06T16:29:23.747Z,63.45
2019-03-06T16:30:31.618Z,62.40
2019-03-06T16:31:39.690Z,63.80
2019-03-06T16:32:47.731Z,63.80
2019-03-06T16:33:55.805Z,61.89
2019-03-06T16:35:03.876Z,63.51
2019-03-06T16:36:11.945Z,65.23
2019-03-06T16:37:19.998Z,66.82
2019-03-06T16:38:28.073Z,67.86
2019-03-06T16:39:36.129Z,67.86
2019-03-06T16:40:44.202Z,68.15
2019-03-06T16:41:52.250Z,71.11
2019-03-06T16:43:00.330Z,71.48
2019-03-06T16:44:08.379Z,71.39
2019-03-06T16:45:16.451Z,72.06
2019-03-06T16:46:24.521Z,71.93
2019-03-06T16:47:32.567Z,69.35
2019-03-06T16:48:40.675Z,71.55
2019-03-06T16:49:48.686Z,77.74
2019-03-06T16:50:56.757Z,76.12
2019-03-06T16:52:04.826Z,74.40
2019-03-06T16:53:12.904Z,81.23
2019-03-06T16:54:20.954Z,92.18
2019-03-06T16:55:28.986Z,90.65
2019-03-06T16:56:37.118Z,87.23
2019-03-06T16:57:45.766Z,90.65
2019-03-06T16:58:53.216Z,94.37
2019-03-06T17:00:01.276Z,99.99
2019-03-06T17:01:09.311Z,99.99
2019-03-06T17:02:18.033Z,99.99
2019-03-06T17:03:26.066Z,99.99
2019-03-06T17:04:34.121Z,99.99
2019-03-06T17:05:42.210Z,99.99
2019-03-06T17:06:50.271Z,99.99
2019-03-06T17:07:58.318Z,99.99
2019-03-06T17:09:06.387Z,99.99
2019-03-06T17:10:14.459Z,99.99
2019-03-06T17:11:22.489Z,99.99
2019-03-06T17:12:30.559Z,99.99
2019-03-06T17:13:38.630Z,96.89
2019-03-06T17:14:46.688Z,88.99
2019-03-06T17:15:54.760Z,85.94
2019-03-06T17:17:02.844Z,81.66
2019-03-06T17:18:10.901Z,99.99
2019-03-06T17:19:18.921Z,99.99
2019-03-06T17:20:27.026Z,99.99
2019-03-06T17:21:35.071Z,99.99
2019-03-06T17:22:43.123Z,99.99
2019-03-06T17:23:51.195Z,99.99
2019-03-06T17:24:59.283Z,99.99
2019-03-06T17:26:07.346Z,99.99
2019-03-06T17:27:15.377Z,99.99
2019-03-06T17:28:23.442Z,96.31
2019-03-06T17:29:31.515Z,97.74
2019-03-06T17:30:39.551Z,99.99
2019-03-06T17:31:47.626Z,99.99
2019-03-06T17:32:55.706Z,99.99
2019-03-06T17:34:03.761Z,99.99
2019-03-06T17:35:11.806Z,99.99
2019-03-06T17:36:19.879Z,99.99
2019-03-06T17:37:27.952Z,99.99
2019-03-06T17:38:35.992Z,99.99
2019-03-06T17:39:44.113Z,99.99
2019-03-06T17:40:52.129Z,99.99
2019-03-06T17:42:00.168Z,99.99
2019-03-06T17:43:08.265Z,99.99
2019-03-06T17:44:16.360Z,99.99
2019-03-06T17:45:24.361Z,99.99
2019-03-06T17:46:32.449Z,99.99
2019-03-06T17:47:40.501Z,99.99
2019-03-06T17:48:48.585Z,99.99
2019-03-06T17:49:56.612Z,99.99
2019-03-06T17:51:04.684Z,99.99
2019-03-06T17:52:12.738Z,99.99
2019-03-06T17:53:20.803Z,99.99
2019-03-06T17:54:28.829Z,99.99
2019-03-06T17:55:36.929Z,99.99
2019-03-06T17:56:46.718Z,99.99
2019-03-06T17:57:53.063Z,99.99
2019-03-06T17:59:01.108Z,99.99
2019-03-06T18:00:16.610Z,99.99
2019-03-06T18:01:17.245Z,99.99
2019-03-06T18:02:26.487Z,99.99
2019-03-06T18:03:33.360Z,99.99
2019-03-06T18:04:41.414Z,99.99
2019-03-06T18:05:49.501Z,99.99
2019-03-06T18:06:57.548Z,99.99
2019-03-06T18:08:05.624Z,99.99
2019-03-06T18:09:13.659Z,99.99
2019-03-06T18:10:21.714Z,99.99
2019-03-06T18:11:29.789Z,99.99
2019-03-06T18:12:37.835Z,99.99
2019-03-06T18:13:45.909Z,99.99
2019-03-06T18:14:53.931Z,99.99
2019-03-06T18:16:02.024Z,99.99
2019-03-06T18:17:10.081Z,99.99
2019-03-06T18:18:18.165Z,99.99
2019-03-06T18:19:26.212Z,99.99
2019-03-06T18:20:34.270Z,99.99
2019-03-06T18:21:42.327Z,99.99
2019-03-06T18:22:50.395Z,99.99
2019-03-06T18:23:58.479Z,99.99
2019-03-06T18:25:06.530Z,99.99
2019-03-06T18:26:14.571Z,99.99
2019-03-06T18:27:26.207Z,99.99
2019-03-06T18:28:30.688Z,99.99
2019-03-06T18:29:38.736Z,99.99
2019-03-06T18:30:46.826Z,99.99
2019-03-06T18:31:54.876Z,99.99
2019-03-06T18:33:02.943Z,99.99
2019-03-06T18:34:11.010Z,99.99
2019-03-06T18:35:19.042Z,99.99
2019-03-06T18:36:27.124Z,99.99
2019-03-06T18:37:35.208Z,99.99
2019-03-06T18:38:43.304Z,99.99
2019-03-06T18:39:51.306Z,99.99
2019-03-06T18:40:59.359Z,99.99
2019-03-06T18:42:07.427Z,99.99
2019-03-06T18:43:15.490Z,99.99
2019-03-06T18:44:23.549Z,99.99
2019-03-06T18:45:31.604Z,99.99
2019-03-06T18:46:39.683Z,99.99
2019-03-06T18:47:47.751Z,99.99
2019-03-06T18:48:55.795Z,99.99
2019-03-06T18:50:03.875Z,99.99
2019-03-06T18:51:11.906Z,99.99
2019-03-06T18:52:19.992Z,99.99
2019-03-06T18:53:28.027Z,99.99
2019-03-06T18:54:36.096Z,99.99
2019-03-06T18:55:44.175Z,99.99
2019-03-06T18:56:52.238Z,99.99
2019-03-06T18:58:00.287Z,99.99
2019-03-06T18:59:08.359Z,99.99
2019-03-06T19:00:16.422Z,99.99
2019-03-06T19:01:24.481Z,99.99
2019-03-06T19:02:32.531Z,99.99
2019-03-06T19:03:40.583Z,99.99
2019-03-06T19:04:48.626Z,99.99
2019-03-06T19:05:56.718Z,99.99
2019-03-06T19:07:04.858Z,99.99
2019-03-06T19:08:12.826Z,99.99
2019-03-06T19:09:20.898Z,99.99
2019-03-06T19:10:28.931Z,99.99
2019-03-06T19:11:37.008Z,99.99
2019-03-06T19:12:45.110Z,99.99
2019-03-06T19:13:53.152Z,99.99
2019-03-06T19:15:01.191Z,99.99
2019-03-06T19:16:09.249Z,99.99
2019-03-06T19:17:17.331Z,99.99
2019-03-06T19:18:25.379Z,99.99
2019-03-06T19:19:33.434Z,99.99
2019-03-06T19:20:42.346Z,99.99
2019-03-06T19:21:49.556Z,99.99
2019-03-06T19:22:57.632Z,99.99
2019-03-06T19:24:05.683Z,99.99
2019-03-06T19:25:13.741Z,99.99
2019-03-06T19:26:21.781Z,99.99
2019-03-06T19:27:29.857Z,99.99
2019-03-06T19:28:37.928Z,99.99
2019-03-06T19:29:45.998Z,99.99
2019-03-06T19:30:54.050Z,99.99
2019-03-06T19:32:02.103Z,99.99
2019-03-06T19:33:10.181Z,99.99
2019-03-06T19:34:18.221Z,99.99
2019-03-06T19:35:26.290Z,99.99
2019-03-06T19:36:34.351Z,99.99
2019-03-06T19:37:42.433Z,99.99
2019-03-06T19:38:50.459Z,99.99
2019-03-06T19:39:58.515Z,99.99
2019-03-06T19:41:06.585Z,99.99
2019-03-06T19:42:14.659Z,99.99
2019-03-06T19:43:22.710Z,99.99
2019-03-06T19:44:30.769Z,99.99
2019-03-06T19:45:38.792Z,99.99
2019-03-06T19:46:46.899Z,99.99
2019-03-06T19:47:54.929Z,99.99
2019-03-06T19:49:03.012Z,99.99
2019-03-06T19:50:11.078Z,99.99
2019-03-06T19:51:19.110Z,99.99
2019-03-06T19:52:27.481Z,99.99
2019-03-06T19:53:35.590Z,99.99
2019-03-06T19:54:43.574Z,99.99
2019-03-06T19:55:51.384Z,99.99
2019-03-06T19:56:59.421Z,99.99
2019-03-06T19:58:07.492Z,99.99
2019-03-06T19:59:15.558Z,99.99
2019-03-06T20:00:23.611Z,99.99
2019-03-06T20:01:32.093Z,99.99
2019-03-06T20:02:39.756Z,99.99
2019-03-06T20:03:47.793Z,99.99
2019-03-06T20:04:55.869Z,99.99
2019-03-06T20:06:03.916Z,99.99
2019-03-06T20:07:11.982Z,99.99
2019-03-06T20:08:20.033Z,99.99
2019-03-06T20:09:28.107Z,99.99
2019-03-06T20:10:36.157Z,99.99
2019-03-06T20:11:44.206Z,99.99
2019-03-06T20:12:52.268Z,99.99
2019-03-06T20:14:00.352Z,99.99
2019-03-06T20:15:08.385Z,99.99
2019-03-06T20:16:16.497Z,99.99
2019-03-06T20:17:24.534Z,99.99
2019-03-06T20:18:32.597Z,99.99
2019-03-06T20:19:40.665Z,99.99
2019-03-06T20:20:48.715Z,99.99
2019-03-06T20:21:56.769Z,99.99
2019-03-06T20:23:04.846Z,99.99
2019-03-06T20:24:12.879Z,99.99
2019-03-06T20:25:22.639Z,99.99
2019-03-06T20:26:28.988Z,99.99
2019-03-06T20:27:37.072Z,99.99
2019-03-06T20:28:45.371Z,99.99
2019-03-06T20:29:53.174Z,99.99
2019-03-06T20:31:01.249Z,99.99
2019-03-06T20:32:09.721Z,99.99
2019-03-06T20:33:17.354Z,99.99
2019-03-06T20:34:25.415Z,99.99
2019-03-06T20:35:33.475Z,99.99
2019-03-06T20:36:41.541Z,99.99
2019-03-06T20:37:49.598Z,99.99
2019-03-06T20:38:57.656Z,99.99
2019-03-06T20:40:05.714Z,99.99
2019-03-06T20:41:13.781Z,99.99
2019-03-06T20:42:21.843Z,99.99